Time;durP1;ratioP1;P1;durP2;ratioP2;P2;SDS_P1;SDS_P2;PMS_P1;PMS_P2;Temp;Humidity;BMP_temperature;BMP_pressure;BME280_temperature;BME280_humidity;BME280_pressure;Samples;Min_cycle;Max_cycle;Signal;HPM_P1;HPM_P2
2022/04/30 00:00:34;;;;;;;10.80;9.80;;;15.80;64.90;;;;;;5073495;28;20180;-82
2022/04/30 00:03:01;;;;;;;11.57;10.47;;;15.70;65.80;;;;;;5084720;28;20183;-82
2022/04/30 00:05:32;;;;;;;11.70;10.70;;;15.70;65.50;;;;;;5088609;28;20198;-82
2022/04/30 00:07:59;;;;;;;11.07;10.10;;;15.70;65.50;;;;;;5084272;28;20759;-82
2022/04/30 00:10:24;;;;;;;11.33;10.10;;;15.70;66.10;;;;;;5094308;28;20675;-82
2022/04/30 00:12:50;;;;;;;11.27;10.23;;;15.60;66.50;;;;;;5096548;28;20257;-82
2022/04/30 00:15:16;;;;;;;12.27;11.07;;;15.50;67.40;;;;;;5085268;28;20237;-82
2022/04/30 00:17:41;;;;;;;13.13;10.73;;;15.50;67.40;;;;;;5084089;28;20213;-82
2022/04/30 00:20:08;;;;;;;11.70;10.63;;;15.50;67.30;;;;;;5089157;28;20190;-83
2022/04/30 00:22:34;;;;;;;11.30;9.90;;;15.60;67.00;;;;;;5088423;28;20716;-82
2022/04/30 00:25:01;;;;;;;11.53;10.23;;;15.70;67.00;;;;;;5080176;28;20195;-83
2022/04/30 00:27:26;;;;;;;11.33;10.23;;;15.60;67.00;;;;;;5085183;28;20212;-82
2022/04/30 00:29:53;;;;;;;11.30;10.30;;;15.80;66.90;;;;;;5085875;28;20221;-82
2022/04/30 00:32:18;;;;;;;13.17;11.73;;;15.70;67.40;;;;;;5082379;28;20183;-82
2022/04/30 00:34:45;;;;;;;13.23;12.00;;;15.60;67.60;;;;;;5092376;28;20325;-82
2022/04/30 00:37:11;;;;;;;12.40;11.20;;;15.50;68.50;;;;;;5091844;28;20200;-82
2022/04/30 00:39:36;;;;;;;14.27;13.00;;;15.40;69.10;;;;;;5084626;28;20191;-82
2022/04/30 00:42:02;;;;;;;13.43;12.10;;;15.40;69.20;;;;;;5082251;28;20180;-82
2022/04/30 00:44:28;;;;;;;12.37;11.17;;;15.40;69.50;;;;;;5083524;28;20195;-82
2022/04/30 00:46:54;;;;;;;14.93;11.87;;;15.40;69.40;;;;;;5091463;28;20238;-82
2022/04/30 00:49:20;;;;;;;14.07;12.33;;;15.50;69.40;;;;;;5101341;28;20191;-82
2022/04/30 00:51:47;;;;;;;14.67;12.30;;;15.50;69.50;;;;;;5089428;28;20759;-82
2022/04/30 00:54:14;;;;;;;14.50;13.00;;;15.60;69.50;;;;;;5040279;28;20268;-82
2022/04/30 00:56:51;;;;;;;18.07;14.10;;;15.50;70.30;;;;;;5080603;28;20207;-82
2022/04/30 00:59:18;;;;;;;16.67;15.13;;;15.10;72.00;;;;;;5073089;28;20214;-82
2022/04/30 01:01:46;;;;;;;18.70;15.83;;;14.80;74.20;;;;;;5086756;28;20190;-82
2022/04/30 01:04:13;;;;;;;20.10;16.67;;;14.80;74.70;;;;;;5094300;28;20187;-82
2022/04/30 01:06:53;;;;;;;17.17;14.27;;;14.70;75.50;;;;;;5087891;28;20207;-82
2022/04/30 01:09:25;;;;;;;18.17;14.77;;;14.70;75.90;;;;;;5108514;28;20184;-82
2022/04/30 01:11:56;;;;;;;18.07;15.17;;;14.80;76.00;;;;;;5083645;28;20179;-82
2022/04/30 01:14:22;;;;;;;17.07;15.40;;;14.70;76.20;;;;;;5086409;28;20755;-82
2022/04/30 01:16:49;;;;;;;17.80;15.13;;;14.90;75.80;;;;;;5084184;28;20255;-82
2022/04/30 01:19:19;;;;;;;18.93;15.17;;;14.90;75.40;;;;;;5095934;28;20190;-82
2022/04/30 01:21:50;;;;;;;19.07;17.20;;;15.00;75.20;;;;;;5081870;28;20192;-82
2022/04/30 01:24:22;;;;;;;20.83;16.90;;;14.90;76.10;;;;;;5083363;28;20191;-82
2022/04/30 01:26:51;;;;;;;22.87;18.07;;;14.80;76.20;;;;;;5091492;28;20225;-82
2022/04/30 01:29:18;;;;;;;19.87;17.93;;;14.70;77.10;;;;;;5096083;28;20542;-82
2022/04/30 01:37:25;;;;;;;22.23;16.53;;;14.30;80.30;;;;;;5081473;28;20266;-82
2022/04/30 01:40:03;;;;;;;18.20;16.27;;;14.40;80.70;;;;;;5089603;28;20218;-82
2022/04/30 01:42:35;;;;;;;20.17;17.60;;;14.50;79.90;;;;;;5093037;28;20208;-82
2022/04/30 01:45:04;;;;;;;18.73;15.17;;;14.40;80.50;;;;;;5093929;28;20191;-82
2022/04/30 01:47:32;;;;;;;19.23;17.27;;;14.60;81.10;;;;;;5064415;28;20213;-82
2022/04/30 01:49:58;;;;;;;19.63;16.80;;;14.80;81.10;;;;;;5083475;28;20202;-82
2022/04/30 01:52:24;;;;;;;19.90;16.83;;;14.90;81.80;;;;;;5079266;28;20290;-82
2022/04/30 01:54:52;;;;;;;20.33;17.77;;;15.00;80.60;;;;;;5078581;28;20296;-82
2022/04/30 01:57:23;;;;;;;19.60;16.07;;;15.00;81.00;;;;;;5079128;28;20705;-82
2022/04/30 01:59:52;;;;;;;21.23;18.17;;;15.10;81.80;;;;;;5088285;28;20621;-82
2022/04/30 02:02:23;;;;;;;21.27;18.20;;;15.00;81.80;;;;;;5087699;28;20232;-82
2022/04/30 02:04:55;;;;;;;18.80;16.80;;;14.90;84.50;;;;;;5103664;28;20723;-82
2022/04/30 02:07:22;;;;;;;23.00;18.70;;;14.90;85.50;;;;;;5082720;28;20212;-82
2022/04/30 02:09:51;;;;;;;20.77;18.57;;;14.50;86.40;;;;;;5081607;28;20193;-82
2022/04/30 02:12:17;;;;;;;21.30;18.93;;;14.40;87.30;;;;;;5077600;28;20299;-82
2022/04/30 02:14:48;;;;;;;21.10;18.53;;;14.40;88.50;;;;;;5085805;28;20304;-82
2022/04/30 02:17:15;;;;;;;19.63;17.40;;;14.30;88.70;;;;;;5087784;28;20214;-82
2022/04/30 02:22:31;;;;;;;24.87;20.57;;;14.30;90.70;;;;;;5088943;28;20210;-82
2022/04/30 02:24:58;;;;;;;20.27;18.13;;;14.30;91.20;;;;;;5081506;28;20189;-82
2022/04/30 02:27:25;;;;;;;21.00;18.90;;;14.20;90.80;;;;;;5085652;28;20234;-82
2022/04/30 02:29:51;;;;;;;23.80;19.37;;;14.10;91.20;;;;;;5089583;28;20289;-82
2022/04/30 02:32:17;;;;;;;23.53;18.53;;;14.10;90.50;;;;;;5087626;28;20278;-82
2022/04/30 02:34:46;;;;;;;23.07;20.13;;;14.10;90.70;;;;;;5075821;28;20196;-82
2022/04/30 02:37:14;;;;;;;22.43;19.23;;;14.10;91.20;;;;;;5088547;28;20203;-82
2022/04/30 02:39:45;;;;;;;23.87;19.43;;;13.90;93.00;;;;;;5086333;28;20278;-82
2022/04/30 02:42:11;;;;;;;21.40;19.27;;;13.90;93.90;;;;;;5081716;28;20263;-82
2022/04/30 02:44:37;;;;;;;22.67;20.27;;;13.90;94.70;;;;;;5064587;28;20194;-82
2022/04/30 02:47:03;;;;;;;21.10;18.80;;;13.80;95.10;;;;;;5086630;28;20285;-82
2022/04/30 02:49:29;;;;;;;23.73;19.90;;;13.80;97.00;;;;;;5094560;28;20195;-82
2022/04/30 02:51:55;;;;;;;19.23;17.13;;;13.80;95.00;;;;;;5094650;28;20195;-82
2022/04/30 02:54:20;;;;;;;24.87;20.63;;;13.90;96.10;;;;;;5075567;28;20640;-83
2022/04/30 02:56:46;;;;;;;22.73;20.50;;;13.90;95.60;;;;;;5082078;28;20211;-82
2022/04/30 03:01:55;;;;;;;21.67;19.27;;;13.80;94.80;;;;;;5103454;28;20201;-83
2022/04/30 03:04:21;;;;;;;23.27;19.77;;;13.80;95.70;;;;;;5088111;28;20192;-83
2022/04/30 03:06:47;;;;;;;21.97;19.73;;;13.90;96.90;;;;;;5082909;28;20225;-82
2022/04/30 03:09:13;;;;;;;24.43;20.27;;;13.90;95.40;;;;;;5083221;28;20248;-83
2022/04/30 03:11:38;;;;;;;22.73;20.30;;;13.90;95.80;;;;;;5087729;28;20203;-83
2022/04/30 03:14:04;;;;;;;22.40;20.03;;;13.90;95.60;;;;;;5078695;28;20223;-83
2022/04/30 03:22:01;;;;;;;21.47;19.17;;;14.00;96.00;;;;;;5080590;28;20201;-83
2022/04/30 03:24:29;;;;;;;21.83;19.50;;;14.00;95.70;;;;;;5083172;28;20200;-83
2022/04/30 03:26:55;;;;;;;20.43;18.13;;;14.00;94.00;;;;;;5067327;28;20243;-83
2022/04/30 03:29:21;;;;;;;21.33;19.13;;;14.10;93.50;;;;;;5081893;28;20233;-83
2022/04/30 03:31:49;;;;;;;22.13;19.13;;;14.20;93.70;;;;;;5085960;28;20189;-83
2022/04/30 03:34:14;;;;;;;19.97;17.90;;;14.40;93.30;;;;;;5087087;28;20188;-84
2022/04/30 03:36:41;;;;;;;22.87;19.63;;;14.20;93.60;;;;;;5079529;28;20210;-83
2022/04/30 03:39:07;;;;;;;24.70;21.43;;;14.20;95.30;;;;;;5063878;28;20201;-83
2022/04/30 03:41:32;;;;;;;20.30;17.80;;;14.10;94.00;;;;;;5082371;28;20186;-85
2022/04/30 03:43:58;;;;;;;21.33;19.30;;;13.90;97.20;;;;;;5082070;28;20190;-83
2022/04/30 03:46:24;;;;;;;21.43;19.30;;;14.00;96.90;;;;;;5090980;28;20596;-83
2022/04/30 03:48:56;;;;;;;23.10;20.33;;;14.10;96.70;;;;;;5089008;28;20194;-83
2022/04/30 03:51:24;;;;;;;23.97;21.13;;;14.00;96.90;;;;;;5092340;28;20225;-84
2022/04/30 03:53:52;;;;;;;21.67;19.43;;;14.00;96.90;;;;;;5083510;28;20195;-83
2022/04/30 03:56:19;;;;;;;20.97;18.93;;;14.00;97.00;;;;;;5088099;28;20208;-83
2022/04/30 03:58:47;;;;;;;23.40;20.30;;;14.00;97.10;;;;;;5084654;28;20175;-83
2022/04/30 04:01:13;;;;;;;23.23;20.70;;;14.00;97.20;;;;;;5083203;28;20187;-83
2022/04/30 04:03:43;;;;;;;22.87;20.53;;;13.90;97.70;;;;;;5092998;28;20176;-83
2022/04/30 04:06:09;;;;;;;22.10;19.77;;;14.00;97.60;;;;;;5097707;28;20271;-83
2022/04/30 04:08:35;;;;;;;23.43;21.07;;;13.90;98.00;;;;;;5093956;28;20213;-83
2022/04/30 04:11:10;;;;;;;21.97;19.47;;;13.90;98.10;;;;;;5105397;28;20340;-83
2022/04/30 04:19:04;;;;;;;19.13;17.23;;;14.00;98.70;;;;;;5091424;28;20201;-83
2022/04/30 04:21:30;;;;;;;22.83;20.57;;;14.10;96.80;;;;;;5050116;28;20197;-83
2022/04/30 04:26:42;;;;;;;22.23;20.13;;;14.20;96.90;;;;;;5052055;28;20503;-83
2022/04/30 04:29:07;;;;;;;21.93;19.73;;;14.10;97.80;;;;;;5086667;28;20189;-83
2022/04/30 04:31:33;;;;;;;20.27;18.27;;;14.00;98.60;;;;;;5055469;28;20203;-83
2022/04/30 04:33:59;;;;;;;23.47;21.07;;;14.00;98.30;;;;;;5094285;28;20194;-84
2022/04/30 04:36:25;;;;;;;21.23;19.13;;;14.00;99.10;;;;;;5092740;28;20242;-83
2022/04/30 04:38:50;;;;;;;20.90;18.80;;;14.00;98.70;;;;;;5081607;28;20235;-84
2022/04/30 04:41:16;;;;;;;19.63;17.63;;;14.00;99.10;;;;;;5089931;28;20195;-83
2022/04/30 04:43:41;;;;;;;22.63;20.33;;;14.00;98.20;;;;;;5089585;28;20194;-83
2022/04/30 04:46:07;;;;;;;21.17;19.20;;;14.00;99.10;;;;;;5091142;28;20236;-84
2022/04/30 04:48:34;;;;;;;24.03;21.53;;;14.10;99.80;;;;;;5093326;28;20205;-83
2022/04/30 04:51:00;;;;;;;23.47;21.23;;;14.10;98.60;;;;;;5084647;28;20713;-83
2022/04/30 04:53:26;;;;;;;20.23;18.00;;;14.10;99.90;;;;;;5115037;28;20182;-83
2022/04/30 04:55:52;;;;;;;24.80;22.43;;;14.10;97.20;;;;;;5109256;28;20307;-83
2022/04/30 04:58:17;;;;;;;20.77;18.87;;;14.10;99.40;;;;;;5066535;28;20191;-85
2022/04/30 05:00:46;;;;;;;23.67;21.27;;;14.10;97.80;;;;;;5093125;28;20195;-83
2022/04/30 05:03:13;;;;;;;24.37;22.07;;;14.20;98.00;;;;;;5077017;28;20202;-83
2022/04/30 05:05:38;;;;;;;22.93;20.57;;;14.20;98.20;;;;;;5084708;28;20207;-83
2022/04/30 05:08:04;;;;;;;20.80;18.90;;;14.10;98.20;;;;;;5089635;28;20646;-83
2022/04/30 05:10:30;;;;;;;24.13;21.77;;;14.00;99.10;;;;;;5085509;28;20251;-83
2022/04/30 05:12:56;;;;;;;23.87;21.47;;;14.00;99.90;;;;;;5066999;28;20552;-83
2022/04/30 05:15:21;;;;;;;23.50;21.30;;;14.00;99.90;;;;;;5090423;28;20226;-82
2022/04/30 05:17:47;;;;;;;23.63;21.40;;;14.00;99.90;;;;;;5088008;28;20223;-83
2022/04/30 05:20:13;;;;;;;22.07;19.87;;;14.00;99.90;;;;;;5085447;28;20206;-83
2022/04/30 05:22:38;;;;;;;22.30;20.13;;;13.90;99.90;;;;;;5071605;28;20191;-85
2022/04/30 05:25:05;;;;;;;23.30;21.00;;;13.90;99.90;;;;;;5080105;28;20222;-82
2022/04/30 05:27:30;;;;;;;23.07;20.73;;;14.00;99.90;;;;;;5095856;28;20213;-82
2022/04/30 05:29:56;;;;;;;25.57;22.87;;;14.00;99.90;;;;;;5096081;28;20207;-83
2022/04/30 05:32:22;;;;;;;24.10;21.83;;;14.00;99.90;;;;;;5096811;28;20194;-83
2022/04/30 05:34:47;;;;;;;22.53;20.43;;;13.80;99.90;;;;;;5083851;28;20306;-82
2022/04/30 05:37:13;;;;;;;24.07;21.77;;;13.70;99.90;;;;;;5083023;28;20205;-82
2022/04/30 05:39:39;;;;;;;23.50;21.03;;;13.70;99.90;;;;;;5089182;28;20189;-82
2022/04/30 05:42:05;;;;;;;21.80;19.80;;;13.60;99.90;;;;;;5077800;28;20243;-82
2022/04/30 05:44:31;;;;;;;21.67;19.70;;;13.50;99.90;;;;;;5084125;28;20200;-83
2022/04/30 05:46:56;;;;;;;21.70;19.60;;;13.50;99.90;;;;;;5092483;28;20563;-83
2022/04/30 05:49:22;;;;;;;23.53;21.23;;;13.40;99.90;;;;;;5093635;28;20194;-83
2022/04/30 05:51:49;;;;;;;22.10;19.87;;;13.30;99.90;;;;;;5095436;28;20792;-83
2022/04/30 05:54:16;;;;;;;22.37;20.17;;;13.30;99.90;;;;;;5085994;28;20196;-83
2022/04/30 05:56:41;;;;;;;21.77;19.73;;;13.30;99.90;;;;;;5068197;28;20396;-83
2022/04/30 05:59:08;;;;;;;22.47;20.30;;;13.20;99.90;;;;;;5086111;28;20202;-83
2022/04/30 06:01:34;;;;;;;21.20;19.13;;;13.30;99.90;;;;;;5089021;28;20253;-83
2022/04/30 06:04:00;;;;;;;21.30;19.23;;;13.30;99.90;;;;;;5063719;28;20202;-83
2022/04/30 06:06:26;;;;;;;20.80;18.80;;;13.30;99.90;;;;;;5088131;28;20214;-83
2022/04/30 06:08:51;;;;;;;20.40;18.50;;;13.40;99.90;;;;;;5075666;28;20374;-83
2022/04/30 06:11:17;;;;;;;21.43;19.27;;;13.50;99.90;;;;;;5091821;28;20683;-83
2022/04/30 06:13:43;;;;;;;19.13;17.40;;;13.50;99.90;;;;;;5086417;28;20268;-83
2022/04/30 06:16:08;;;;;;;20.40;18.50;;;13.60;99.90;;;;;;5072113;28;20217;-83
2022/04/30 06:18:34;;;;;;;22.00;19.77;;;13.70;99.90;;;;;;5072989;28;20200;-83
2022/04/30 06:21:01;;;;;;;20.37;18.37;;;13.80;99.90;;;;;;5085276;28;20183;-84
2022/04/30 06:23:27;;;;;;;20.17;18.27;;;13.80;99.90;;;;;;5064479;28;20193;-83
2022/04/30 06:25:52;;;;;;;20.60;18.63;;;13.80;99.90;;;;;;5090416;28;20233;-83
2022/04/30 06:28:18;;;;;;;21.67;19.67;;;13.80;99.90;;;;;;5096274;28;20220;-83
2022/04/30 06:30:44;;;;;;;23.03;20.80;;;13.90;99.90;;;;;;5086324;28;20672;-83
2022/04/30 06:33:09;;;;;;;23.53;21.30;;;13.90;99.90;;;;;;5086872;28;20191;-83
2022/04/30 06:35:37;;;;;;;23.43;21.00;;;13.90;99.90;;;;;;5089809;28;20628;-83
2022/04/30 06:38:02;;;;;;;22.13;20.03;;;13.80;99.90;;;;;;5081853;28;20190;-83
2022/04/30 06:40:31;;;;;;;21.97;19.90;;;13.70;99.90;;;;;;5085729;28;20190;-83
2022/04/30 06:42:57;;;;;;;20.57;18.63;;;13.60;99.90;;;;;;5066907;28;20184;-84
2022/04/30 06:45:23;;;;;;;20.43;18.53;;;13.60;99.90;;;;;;5090777;28;20190;-83
2022/04/30 06:47:48;;;;;;;19.57;17.83;;;13.50;99.90;;;;;;5092304;28;20210;-83
2022/04/30 06:50:14;;;;;;;20.33;18.53;;;13.40;99.90;;;;;;5090045;28;20266;-83
2022/04/30 06:58:08;;;;;;;20.03;17.93;;;13.60;99.90;;;;;;5083883;28;20193;-83
2022/04/30 07:03:22;;;;;;;19.63;17.70;;;13.50;99.90;;;;;;5087493;28;20733;-83
2022/04/30 07:05:50;;;;;;;18.47;16.77;;;13.60;99.90;;;;;;5070603;28;20207;-83
2022/04/30 07:08:15;;;;;;;18.50;16.90;;;13.50;99.90;;;;;;5084853;28;20225;-83
2022/04/30 07:10:41;;;;;;;19.67;17.83;;;13.50;99.90;;;;;;5086381;28;20193;-83
2022/04/30 07:13:06;;;;;;;17.97;16.13;;;13.50;99.90;;;;;;5093013;28;20198;-83
2022/04/30 07:15:32;;;;;;;20.07;18.27;;;13.50;99.90;;;;;;5079545;28;20223;-83
2022/04/30 07:17:58;;;;;;;19.90;18.00;;;13.50;99.90;;;;;;5085790;28;20179;-83
2022/04/30 07:20:23;;;;;;;19.40;17.67;;;13.40;99.90;;;;;;5081668;28;20821;-83
2022/04/30 07:22:49;;;;;;;20.43;18.53;;;13.40;99.90;;;;;;5092757;28;20527;-83
2022/04/30 07:25:14;;;;;;;19.23;17.60;;;13.20;99.90;;;;;;5072108;28;20813;-83
2022/04/30 07:27:40;;;;;;;19.53;17.80;;;13.30;99.90;;;;;;5068121;28;20210;-82
2022/04/30 07:30:06;;;;;;;19.17;17.37;;;13.20;99.90;;;;;;5087920;28;20190;-82
2022/04/30 07:32:32;;;;;;;19.43;17.60;;;13.20;99.90;;;;;;5089678;28;20198;-82
2022/04/30 07:34:59;;;;;;;19.90;17.90;;;13.10;99.90;;;;;;5093930;28;20233;-82
2022/04/30 07:37:25;;;;;;;18.40;16.70;;;13.10;99.90;;;;;;5086340;28;20624;-83
2022/04/30 07:39:50;;;;;;;19.63;17.87;;;13.10;99.90;;;;;;5073529;28;20300;-83
2022/04/30 07:42:16;;;;;;;20.33;18.37;;;13.30;99.90;;;;;;5100131;28;20193;-83
2022/04/30 07:44:44;;;;;;;19.27;17.37;;;13.40;99.90;;;;;;5078739;28;20208;-83
2022/04/30 07:47:10;;;;;;;19.20;17.27;;;13.40;99.90;;;;;;5079060;28;20212;-83
2022/04/30 07:49:36;;;;;;;17.63;15.97;;;13.40;99.90;;;;;;5071092;28;20240;-80
2022/04/30 07:52:03;;;;;;;19.10;17.40;;;13.30;99.90;;;;;;5066873;28;20587;-84
2022/04/30 07:54:28;;;;;;;18.50;16.80;;;13.30;99.90;;;;;;5066165;28;20753;-82
2022/04/30 07:56:59;;;;;;;19.10;17.50;;;13.10;99.90;;;;;;5086405;28;20206;-82
2022/04/30 07:59:26;;;;;;;19.53;17.67;;;12.90;99.90;;;;;;5091459;28;20191;-84
2022/04/30 08:01:52;;;;;;;17.87;16.27;;;12.70;99.90;;;;;;5076113;28;20200;-81
2022/04/30 08:04:18;;;;;;;18.23;16.53;;;12.60;99.90;;;;;;5088399;28;20197;-81
2022/04/30 08:06:44;;;;;;;18.47;16.77;;;12.80;99.90;;;;;;5092072;28;20209;-82
2022/04/30 08:09:10;;;;;;;16.53;15.13;;;12.90;99.90;;;;;;5090494;28;20187;-82
2022/04/30 08:11:36;;;;;;;19.13;17.43;;;12.90;99.90;;;;;;5099412;28;20299;-82
2022/04/30 08:14:02;;;;;;;18.93;17.20;;;12.90;99.90;;;;;;5080232;28;20234;-82
2022/04/30 08:16:28;;;;;;;18.37;16.57;;;12.80;99.90;;;;;;5072812;28;20295;-82
2022/04/30 08:18:58;;;;;;;19.40;17.47;;;12.90;99.90;;;;;;5100400;28;20190;-83
2022/04/30 08:21:24;;;;;;;39.07;22.67;;;12.90;99.90;;;;;;5099827;28;20427;-83
2022/04/30 08:23:50;;;;;;;21.13;18.73;;;12.80;99.90;;;;;;5088491;28;20186;-83
2022/04/30 08:26:16;;;;;;;35.90;21.13;;;12.70;99.90;;;;;;5088009;28;20261;-83
2022/04/30 08:28:42;;;;;;;23.67;18.87;;;12.70;99.90;;;;;;5084314;28;20201;-82
2022/04/30 08:31:10;;;;;;;23.17;19.93;;;12.70;99.90;;;;;;5080706;28;20190;-82
2022/04/30 08:33:37;;;;;;;23.13;19.57;;;12.50;99.90;;;;;;5097340;28;20597;-82
2022/04/30 08:36:03;;;;;;;21.77;18.20;;;12.50;99.90;;;;;;5096276;28;20227;-82
2022/04/30 08:38:29;;;;;;;19.73;17.70;;;12.50;99.90;;;;;;5101785;28;20185;-83
2022/04/30 08:40:55;;;;;;;21.33;19.07;;;12.50;99.90;;;;;;5093961;28;20208;-82
2022/04/30 08:43:21;;;;;;;21.87;19.20;;;12.50;99.90;;;;;;5075667;28;20275;-83
2022/04/30 08:45:50;;;;;;;21.03;18.50;;;12.50;99.90;;;;;;5095812;28;20223;-82
2022/04/30 08:48:16;;;;;;;23.50;18.57;;;12.40;99.90;;;;;;5100123;28;20278;-83
2022/04/30 08:50:44;;;;;;;19.83;18.03;;;12.50;99.90;;;;;;5061296;28;20204;-84
2022/04/30 08:53:10;;;;;;;19.83;17.73;;;12.50;99.90;;;;;;5091781;28;20187;-82
2022/04/30 08:55:37;;;;;;;19.53;17.63;;;12.60;99.90;;;;;;5081780;28;20219;-83
2022/04/30 08:58:03;;;;;;;20.47;18.17;;;12.60;99.90;;;;;;5097940;28;20206;-83
2022/04/30 09:00:29;;;;;;;23.47;19.20;;;12.70;99.90;;;;;;5096059;28;20188;-83
2022/04/30 09:02:58;;;;;;;20.30;18.23;;;12.70;99.90;;;;;;5075848;28;20455;-83
2022/04/30 09:05:31;;;;;;;20.53;18.40;;;12.80;99.90;;;;;;5080440;28;20325;-83
2022/04/30 09:07:59;;;;;;;19.73;17.80;;;12.90;99.90;;;;;;5084192;28;20196;-83
2022/04/30 09:10:27;;;;;;;17.97;16.23;;;13.00;99.90;;;;;;5086043;28;20208;-83
2022/04/30 09:12:53;;;;;;;19.63;17.67;;;13.10;99.90;;;;;;5090605;28;20192;-83
2022/04/30 09:15:20;;;;;;;20.17;18.17;;;13.00;99.90;;;;;;5075424;28;20216;-83
2022/04/30 09:17:56;;;;;;;20.00;18.00;;;12.70;99.90;;;;;;5095442;28;20216;-83
2022/04/30 09:20:22;;;;;;;19.23;17.33;;;12.80;99.90;;;;;;5094418;28;20194;-82
2022/04/30 09:22:48;;;;;;;19.13;17.33;;;12.90;99.90;;;;;;5094037;28;20213;-83
2022/04/30 09:25:15;;;;;;;17.10;15.60;;;13.00;99.90;;;;;;5081594;28;20259;-84
2022/04/30 09:27:45;;;;;;;20.27;18.23;;;13.20;99.90;;;;;;5080132;28;20202;-83
2022/04/30 09:30:24;;;;;;;19.43;17.63;;;13.30;99.90;;;;;;5068986;28;20185;-83
2022/04/30 09:33:04;;;;;;;19.37;17.43;;;13.30;99.90;;;;;;5092224;28;20716;-83
2022/04/30 09:38:16;;;;;;;18.83;17.00;;;13.00;99.90;;;;;;5105399;28;20216;-83
2022/04/30 09:41:00;;;;;;;18.23;16.43;;;13.00;99.90;;;;;;5083402;28;20190;-83
2022/04/30 09:43:36;;;;;;;20.03;17.97;;;13.00;99.90;;;;;;5086161;28;20252;-83
2022/04/30 09:46:04;;;;;;;27.63;21.13;;;13.00;99.90;;;;;;5083926;28;20573;-83
2022/04/30 09:54:05;;;;;;;20.33;18.27;;;12.90;99.90;;;;;;5081678;28;20419;-83
2022/04/30 09:56:38;;;;;;;19.67;17.77;;;13.00;99.90;;;;;;5094090;28;20224;-83
2022/04/30 09:59:10;;;;;;;42.90;20.90;;;13.00;99.90;;;;;;5082712;28;20226;-83
2022/04/30 10:01:37;;;;;;;27.83;19.97;;;13.00;99.90;;;;;;5088486;28;20187;-83
2022/04/30 10:04:17;;;;;;;32.03;20.27;;;13.00;99.90;;;;;;5090937;28;20178;-83
2022/04/30 10:06:44;;;;;;;22.80;20.00;;;13.00;99.90;;;;;;5072402;28;20308;-83
2022/04/30 10:09:20;;;;;;;21.03;18.77;;;13.00;99.90;;;;;;5088916;28;20189;-84
2022/04/30 10:12:10;;;;;;;21.03;19.07;;;13.00;99.90;;;;;;5071236;28;20181;-83
2022/04/30 10:15:05;;;;;;;23.03;19.57;;;13.00;99.90;;;;;;5092322;28;20232;-83
2022/04/30 10:17:35;;;;;;;21.93;18.57;;;13.00;99.90;;;;;;5083376;28;20209;-83
2022/04/30 10:20:07;;;;;;;22.07;19.37;;;12.90;99.90;;;;;;5077097;28;20319;-83
2022/04/30 10:22:33;;;;;;;25.70;21.00;;;13.00;99.90;;;;;;5088321;28;20197;-82
2022/04/30 10:24:59;;;;;;;30.77;21.30;;;12.90;99.90;;;;;;5085325;28;20537;-82
2022/04/30 10:27:41;;;;;;;27.87;20.73;;;12.90;99.90;;;;;;5087996;28;20206;-82
2022/04/30 10:30:18;;;;;;;25.97;18.80;;;12.80;99.90;;;;;;5099357;28;20205;-82
2022/04/30 10:32:56;;;;;;;20.20;18.20;;;12.90;99.90;;;;;;5098641;28;20179;-82
2022/04/30 10:35:36;;;;;;;19.17;17.37;;;12.80;99.90;;;;;;5084801;28;20206;-82
2022/04/30 10:38:21;;;;;;;20.30;18.23;;;12.80;99.90;;;;;;5069128;28;20184;-82
2022/04/30 10:40:52;;;;;;;21.40;19.33;;;12.90;99.90;;;;;;5071707;28;20194;-82
2022/04/30 10:43:23;;;;;;;20.93;18.90;;;12.80;99.90;;;;;;5081781;28;20194;-82
2022/04/30 10:45:48;;;;;;;27.07;19.37;;;12.80;99.90;;;;;;5080510;28;20842;-82
2022/04/30 10:48:16;;;;;;;23.33;18.43;;;12.80;99.90;;;;;;5084618;28;20191;-82
2022/04/30 10:50:42;;;;;;;18.03;16.43;;;12.90;99.90;;;;;;5089174;28;20212;-83
2022/04/30 10:53:10;;;;;;;18.83;17.10;;;13.00;99.90;;;;;;5086969;28;20196;-83
2022/04/30 10:55:37;;;;;;;19.70;17.90;;;13.00;99.90;;;;;;5079169;28;20210;-83
2022/04/30 10:58:02;;;;;;;19.60;17.70;;;13.10;99.90;;;;;;5091887;28;20175;-83
2022/04/30 11:00:28;;;;;;;19.97;18.00;;;13.20;99.90;;;;;;5087159;28;20191;-84
2022/04/30 11:02:54;;;;;;;20.10;18.20;;;13.10;99.90;;;;;;5081076;28;20174;-83
2022/04/30 11:05:25;;;;;;;20.20;18.20;;;13.20;99.90;;;;;;5088421;28;20665;-83
2022/04/30 11:07:51;;;;;;;20.30;18.47;;;13.20;99.90;;;;;;5091350;28;20218;-84
2022/04/30 11:10:17;;;;;;;16.80;15.23;;;13.10;99.90;;;;;;5066969;28;20194;-83
2022/04/30 11:12:44;;;;;;;23.37;20.97;;;13.20;99.90;;;;;;5072123;28;20195;-83
2022/04/30 11:15:11;;;;;;;18.80;17.03;;;13.30;99.90;;;;;;5089895;28;20226;-83
2022/04/30 11:17:47;;;;;;;18.67;16.77;;;13.30;99.90;;;;;;5076223;28;20372;-84
2022/04/30 11:20:23;;;;;;;17.90;16.30;;;13.10;99.90;;;;;;5078167;28;20179;-85
2022/04/30 11:22:56;;;;;;;18.60;16.87;;;13.10;99.90;;;;;;5086217;28;20178;-83
2022/04/30 11:25:31;;;;;;;17.87;16.27;;;13.10;99.90;;;;;;5081689;28;20298;-83
2022/04/30 11:27:58;;;;;;;17.30;15.67;;;13.10;99.90;;;;;;5089489;28;20190;-83
2022/04/30 11:30:24;;;;;;;18.27;16.57;;;13.10;99.90;;;;;;5077885;28;20309;-82
2022/04/30 11:32:50;;;;;;;16.67;15.07;;;13.20;99.90;;;;;;5088817;28;20191;-84
2022/04/30 11:35:19;;;;;;;16.23;14.83;;;13.30;99.90;;;;;;5065241;28;20211;-83
2022/04/30 11:37:45;;;;;;;16.80;15.30;;;13.40;99.90;;;;;;5088385;28;20491;-83
2022/04/30 11:40:11;;;;;;;16.00;14.53;;;13.50;99.90;;;;;;5072741;28;20809;-84
2022/04/30 11:42:37;;;;;;;18.13;16.53;;;13.40;99.90;;;;;;5077509;28;20183;-83
2022/04/30 11:45:03;;;;;;;17.87;16.07;;;13.50;99.90;;;;;;5088223;28;20236;-83
2022/04/30 11:47:30;;;;;;;17.13;15.63;;;13.40;99.90;;;;;;5067378;28;20702;-84
2022/04/30 11:50:09;;;;;;;19.77;17.90;;;13.40;99.90;;;;;;5084253;28;20186;-83
2022/04/30 11:52:35;;;;;;;18.43;16.63;;;13.40;99.90;;;;;;5076960;28;20247;-83
2022/04/30 11:55:05;;;;;;;19.57;17.53;;;13.50;99.90;;;;;;5095044;28;20301;-83
2022/04/30 11:57:34;;;;;;;18.53;16.73;;;13.70;99.90;;;;;;5084957;28;20802;-83
2022/04/30 12:00:00;;;;;;;18.30;16.60;;;13.90;99.90;;;;;;5080302;28;20184;-83
2022/04/30 12:02:29;;;;;;;17.57;15.97;;;14.00;99.90;;;;;;5089914;28;20183;-83
2022/04/30 12:05:03;;;;;;;18.63;16.83;;;14.10;99.30;;;;;;5083817;28;20192;-83
2022/04/30 12:07:36;;;;;;;16.13;14.57;;;14.40;99.00;;;;;;5085129;28;20417;-84
2022/04/30 12:10:03;;;;;;;17.53;15.77;;;14.70;98.70;;;;;;5082576;28;20351;-83
2022/04/30 12:12:29;;;;;;;16.03;14.73;;;14.70;96.10;;;;;;5090285;28;20183;-83
2022/04/30 12:14:56;;;;;;;15.73;14.33;;;14.50;93.00;;;;;;5087029;28;20207;-83
2022/04/30 12:17:28;;;;;;;16.20;14.80;;;14.20;95.50;;;;;;5088987;28;20212;-83
2022/04/30 12:25:30;;;;;;;16.53;14.93;;;13.70;99.90;;;;;;5091641;28;20200;-83
2022/04/30 12:28:04;;;;;;;15.93;14.43;;;13.90;99.50;;;;;;5083956;28;20310;-83
2022/04/30 12:30:33;;;;;;;15.53;14.13;;;14.20;98.70;;;;;;5094250;28;20594;-84
2022/04/30 12:32:59;;;;;;;16.00;14.37;;;14.40;98.20;;;;;;5100083;28;20198;-83
2022/04/30 12:35:38;;;;;;;16.30;14.60;;;14.90;97.50;;;;;;5094524;28;20208;-83
2022/04/30 12:38:16;;;;;;;17.63;16.00;;;15.20;91.30;;;;;;5075589;28;20238;-83
2022/04/30 12:40:50;;;;;;;16.80;15.30;;;15.20;90.20;;;;;;5090132;28;20233;-83
2022/04/30 12:43:16;;;;;;;17.70;16.00;;;14.80;91.80;;;;;;5090556;28;20597;-83
2022/04/30 12:45:47;;;;;;;18.17;16.50;;;14.70;92.60;;;;;;5096462;28;20199;-83
2022/04/30 12:48:14;;;;;;;16.97;15.37;;;14.70;89.10;;;;;;5094109;28;20205;-83
2022/04/30 12:50:40;;;;;;;18.07;16.33;;;14.50;93.20;;;;;;5098338;28;20255;-83
2022/04/30 12:53:09;;;;;;;17.40;15.80;;;15.30;90.30;;;;;;5100756;28;20234;-83
2022/04/30 12:55:39;;;;;;;16.60;15.10;;;15.80;85.00;;;;;;5092716;28;20216;-83
2022/04/30 12:58:05;;;;;;;15.97;14.57;;;15.70;83.40;;;;;;5102635;28;20205;-82
2022/04/30 13:00:32;;;;;;;16.43;14.83;;;16.00;82.30;;;;;;5098773;28;20803;-83
2022/04/30 13:03:00;;;;;;;16.93;15.53;;;16.10;80.80;;;;;;5102414;28;20185;-84
2022/04/30 13:05:26;;;;;;;16.13;14.73;;;15.80;83.30;;;;;;5093850;28;20269;-83
2022/04/30 13:07:53;;;;;;;16.77;15.17;;;15.60;83.10;;;;;;5101208;28;20286;-83
2022/04/30 13:15:48;;;;;;;14.87;13.47;;;14.90;86.10;;;;;;5096835;28;20251;-84
2022/04/30 13:18:16;;;;;;;14.80;13.50;;;14.80;86.70;;;;;;5108212;28;20169;-83
2022/04/30 13:20:42;;;;;;;14.87;13.37;;;14.90;86.10;;;;;;5128744;28;20181;-81
2022/04/30 13:23:08;;;;;;;15.40;13.67;;;15.10;86.50;;;;;;5089178;28;20291;-81